Impacts TAF Board
For situational awareness. Not to be used for flight planning purposes.
IDs:

KSEA - Seattle-Tacoma Intl, WA, US

Issued at 0537 UTC 23 Oct 2018
Updated at 0728 UTC 23 Oct 2018
Potential Impact None Slight Moderate High
Time0714Z 23/08Z 23/09Z 23/10Z 23/11Z 23/12Z 23/13Z 23/14Z 23/15Z 23/16Z 23/17Z 23/18Z 23/19Z 23/20Z>>
Type OBS PRVL PRVL
  [TEMP]  
PRVL
  [TEMP]  
PRVL
  [TEMP]  
PRVL
  [TEMP]  
PRVL PRVL PRVL PRVL PRVL PRVL PRVL PRVL
VIS 0.75 1 1
  [0.5]  
1
  [0.5]  
1
  [0.5]  
1
  [0.5]  
3 3 3 5 5 >6 >6 >6
CIG 1 2 2
  [2]  
2
  [2]  
2
  [2]  
2
  [2]  
6 6 6 -- -- 200 200 200
Cover BKN BKN BKN
  [OVX]  
BKN
  [OVX]  
BKN
  [OVX]  
BKN
  [OVX]  
BKN BKN BKN FEW FEW BKN BKN BKN
FltCat LIFR LIFR LIFR
  [LIFR]  
LIFR
  [LIFR]  
LIFR
  [LIFR]  
LIFR
  [LIFR]  
IFR IFR IFR MVFR MVFR VFR VFR VFR
WX BR BR BR
  [FG]  
BR
  [FG]  
BR
  [FG]  
BR
  [FG]  
BR BR BR HZ BR HZ BR -- -- --
WDir 190 VRB VRB
[VRB]
VRB
[VRB]
VRB
[VRB]
VRB
[VRB]
160 160 160 180 180 180 180 180
WSpd 4 3 3
  [3]  
3
  [3]  
3
  [3]  
3
  [3]  
4 4 4 6 6 6 6 6
WGst -- -- --
  [--]  
--
  [--]  
--
  [--]  
--
  [--]  
-- -- -- -- -- -- -- --
Raw TAF
KSEA 230537Z 2306/2412 VRB03KT 2SM BR SCT003
  FM230700 VRB03KT 1SM BR BKN002
  TEMPO 2309/2313 1/2SM FG VV002
  FM231300 16004KT 3SM BR SCT002 BKN006
  FM231600 18006KT 5SM HZ BR FEW005 FEW012
  FM231800 18006KT P6SM SCT100 BKN200
  FM240200 20008KT P6SM -SHRA BKN040 OVC080


Raw METAR
KSEA 230714Z 19004KT 3/4SM BR BKN001 06/05 A2987 RMK AO2 TWR VIS 2 T00610050 RVRNO
KSEA 230653Z 17003KT 2SM BR SCT001 06/06 A2987 RMK AO2 SLP124 T00610056
KSEA 230643Z 00000KT 2SM BR FEW003 07/06 A2988 RMK AO2 T00670056
KSEA 230553Z 00000KT 2SM BR CLR 07/06 A2988 RMK AO2 SLP124 T00720061 10100 20067 58003
KSEA 230453Z 28004KT 2SM BR CLR 07/06 A2988 RMK AO2 SLP127 VIS W 1/2 T00670056

METAR Board
Radar Display
Forecast Discussion
For situational awareness. Not to be used for flight planning purposes.